Fleming, Georgia
Current Conditions -  °F | °C
As of 8:58 AM on Friday 24 Oct 2014 (Local Time) from KLHW Reporting Station
Broken Clouds Broken Clouds  
Wind Chill: 51°   Ceiling: 23000
Heat Index: 51°   Visibility: 10mi
Dew Point: 48°   Wind: 0mph
Humidity: 89%   Direction: NA
Pressure: 30.04"   Gusts: NA
Location:  31.88°N, 81.43°W
Report Text: KLHW 241258Z 00000KT 10SM BKN230 11/09 A3004 RMK A02A SLP176 WND DATA ESTMD T01050088
Loading
Personal Weather Stations






























Interactive Weather Map
Tropical Storm Tracking
New forecast layout! Learn more

10-Day Weather Forecast

Advertisements
Track Severe Weather on mobile